createdAt,value
2019-02-12T00:00:16.894Z,78.40
2019-02-12T00:02:45.306Z,78.70
2019-02-12T00:05:13.791Z,79.00
2019-02-12T00:07:42.661Z,79.30
2019-02-12T00:10:11.154Z,79.50
2019-02-12T00:12:39.554Z,78.80
2019-02-12T00:15:08.087Z,79.40
2019-02-12T00:17:36.515Z,79.30
2019-02-12T00:20:06.429Z,79.90
2019-02-12T00:22:35.389Z,80.00
2019-02-12T00:25:05.747Z,80.20
2019-02-12T00:27:34.166Z,80.40
2019-02-12T00:30:03.200Z,79.70
2019-02-12T00:32:31.597Z,80.20
2019-02-12T00:35:00.015Z,80.20
2019-02-12T00:37:28.417Z,80.30
2019-02-12T00:39:56.829Z,79.90
2019-02-12T00:42:25.231Z,80.00
2019-02-12T00:44:54.206Z,79.70
2019-02-12T00:47:22.622Z,80.00
2019-02-12T00:49:51.035Z,80.10
2019-02-12T00:52:19.506Z,80.60
2019-02-12T00:54:47.971Z,79.90
2019-02-12T00:57:16.347Z,79.70
2019-02-12T00:59:45.405Z,80.20
2019-02-12T01:02:13.945Z,80.00
2019-02-12T01:04:42.388Z,79.80
2019-02-12T01:07:10.813Z,79.50
2019-02-12T01:09:39.236Z,79.50
2019-02-12T01:12:07.632Z,79.50
2019-02-12T01:14:36.161Z,78.90
2019-02-12T01:17:04.631Z,78.60
2019-02-12T01:19:33.031Z,77.90
2019-02-12T01:22:01.753Z,76.40
2019-02-12T01:24:30.173Z,76.10
2019-02-12T01:26:58.580Z,75.60
2019-02-12T01:29:27.287Z,75.40
2019-02-12T01:31:55.738Z,75.10
2019-02-12T01:34:24.249Z,75.30
2019-02-12T01:36:52.658Z,74.80
2019-02-12T01:39:21.077Z,74.10
2019-02-12T01:41:49.799Z,73.90
2019-02-12T01:44:18.255Z,73.20
2019-02-12T01:46:46.853Z,72.70
2019-02-12T01:49:15.282Z,72.90
2019-02-12T01:51:43.850Z,71.70
2019-02-12T01:54:12.297Z,71.20
2019-02-12T01:56:40.705Z,71.30
2019-02-12T01:59:09.155Z,72.00
2019-02-12T02:01:37.603Z,71.80
2019-02-12T02:04:06.087Z,71.10
2019-02-12T02:06:34.778Z,70.50
2019-02-12T02:09:05.054Z,70.30
2019-02-12T02:11:33.476Z,71.60
2019-02-12T02:14:01.874Z,70.50
2019-02-12T02:16:30.345Z,70.40
2019-02-12T02:18:59.186Z,70.40
2019-02-12T02:21:27.589Z,70.80
2019-02-12T02:23:56.005Z,71.30
2019-02-12T02:26:24.481Z,71.50
2019-02-12T02:28:53.043Z,71.30
2019-02-12T02:31:21.426Z,70.70
2019-02-12T02:33:49.837Z,70.30
2019-02-12T02:36:18.237Z,69.80
2019-02-12T02:38:49.681Z,70.00
2019-02-12T02:41:18.356Z,69.60
2019-02-12T02:43:46.798Z,70.80
2019-02-12T02:46:15.196Z,70.40
2019-02-12T02:48:43.639Z,70.50
2019-02-12T02:51:12.065Z,70.90
2019-02-12T02:53:40.482Z,70.60
2019-02-12T02:56:08.928Z,69.80
2019-02-12T02:58:37.339Z,70.00
2019-02-12T03:01:05.759Z,70.20
2019-02-12T03:03:34.177Z,69.60
2019-02-12T03:06:02.616Z,69.20
2019-02-12T03:08:31.067Z,69.20
2019-02-12T03:10:59.501Z,69.00
2019-02-12T03:13:27.892Z,69.60
2019-02-12T03:15:56.736Z,69.20
2019-02-12T03:18:25.162Z,69.30
2019-02-12T03:20:53.914Z,69.20
2019-02-12T03:23:22.434Z,68.80
2019-02-12T03:25:50.977Z,68.70
2019-02-12T03:28:19.448Z,70.00
2019-02-12T03:30:47.890Z,69.70
2019-02-12T03:33:16.376Z,69.00
2019-02-12T03:35:44.807Z,68.90
2019-02-12T03:38:13.229Z,68.80
2019-02-12T03:40:41.653Z,68.30
2019-02-12T03:43:10.087Z,68.20
2019-02-12T03:45:38.545Z,68.50
2019-02-12T03:48:06.944Z,68.60
2019-02-12T03:50:35.401Z,68.40
2019-02-12T03:53:03.829Z,68.10
2019-02-12T03:55:32.246Z,68.00
2019-02-12T03:58:00.711Z,67.90
2019-02-12T04:00:29.127Z,67.40
2019-02-12T04:03:05.468Z,67.70
2019-02-12T04:05:34.876Z,67.30
2019-02-12T04:08:03.441Z,67.20
2019-02-12T04:10:32.272Z,66.70
2019-02-12T04:13:01.282Z,66.70
2019-02-12T04:15:29.705Z,66.40
2019-02-12T04:17:58.115Z,66.40
2019-02-12T04:20:26.577Z,66.10
2019-02-12T04:22:54.970Z,65.60
2019-02-12T04:25:23.595Z,65.10
2019-02-12T04:27:52.013Z,65.30
2019-02-12T04:30:20.597Z,64.60
2019-02-12T04:32:49.330Z,64.80
2019-02-12T04:35:17.734Z,64.80
2019-02-12T04:37:46.133Z,64.60
2019-02-12T04:40:14.572Z,64.50
2019-02-12T04:42:42.984Z,64.50
2019-02-12T04:45:11.809Z,64.50
2019-02-12T04:47:40.273Z,64.60
2019-02-12T04:50:11.777Z,64.50
2019-02-12T04:52:40.243Z,65.00
2019-02-12T04:55:10.834Z,65.30
2019-02-12T04:57:39.273Z,65.90
2019-02-12T05:00:14.420Z,65.30
2019-02-12T05:02:42.882Z,65.20
2019-02-12T05:05:11.349Z,65.90
2019-02-12T05:07:39.807Z,66.70
2019-02-12T05:10:11.568Z,67.00
2019-02-12T05:12:40.308Z,67.10
2019-02-12T05:15:09.857Z,67.20
2019-02-12T05:17:38.347Z,67.80
2019-02-12T05:20:09.940Z,67.00
2019-02-12T05:22:43.563Z,66.90
2019-02-12T05:25:09.424Z,66.70
2019-02-12T05:27:37.874Z,66.40
2019-02-12T05:30:11.490Z,66.60
2019-02-12T05:32:39.966Z,66.00
2019-02-12T05:35:08.684Z,65.70
2019-02-12T05:37:37.110Z,64.40
2019-02-12T05:40:11.890Z,64.30
2019-02-12T05:42:40.397Z,63.90
2019-02-12T05:45:11.779Z,64.10
2019-02-12T05:47:40.190Z,63.50
2019-02-12T05:50:15.969Z,62.90
2019-02-12T05:52:53.821Z,62.80
2019-02-12T05:55:14.612Z,61.90
2019-02-12T05:57:43.054Z,61.50
2019-02-12T06:00:18.131Z,60.90
2019-02-12T06:02:46.527Z,59.40
2019-02-12T06:05:28.781Z,59.50
2019-02-12T06:07:57.219Z,59.70
2019-02-12T06:10:25.704Z,60.00
2019-02-12T06:12:54.108Z,60.20
2019-02-12T06:15:22.535Z,60.10
2019-02-12T06:17:51.117Z,60.20
2019-02-12T06:20:19.517Z,60.40
2019-02-12T06:22:47.987Z,59.10
2019-02-12T06:25:16.446Z,58.30
2019-02-12T06:27:44.838Z,58.30
2019-02-12T06:30:13.301Z,57.50
2019-02-12T06:32:41.808Z,57.70
2019-02-12T06:35:10.633Z,56.90
2019-02-12T06:37:39.125Z,55.80
2019-02-12T06:40:11.466Z,55.10
2019-02-12T06:42:39.938Z,55.80
2019-02-12T06:45:11.083Z,56.20
2019-02-12T06:47:39.480Z,57.00
2019-02-12T06:50:12.947Z,56.30
2019-02-12T06:52:41.751Z,56.70
2019-02-12T06:55:11.202Z,57.80
2019-02-12T06:57:39.676Z,58.90
2019-02-12T07:00:13.021Z,61.50
2019-02-12T07:03:10.250Z,62.80
2019-02-12T07:05:44.684Z,64.30
2019-02-12T07:08:28.253Z,64.40
2019-02-12T07:11:08.289Z,66.10
2019-02-12T07:13:39.870Z,66.60
2019-02-12T07:16:13.948Z,66.60
2019-02-12T07:19:05.166Z,65.00
2019-02-12T07:21:45.494Z,63.90
2019-02-12T07:24:28.777Z,63.50
2019-02-12T07:27:09.148Z,62.80
2019-02-12T07:29:43.503Z,63.30
2019-02-12T07:32:47.951Z,63.20
2019-02-12T07:35:39.072Z,62.50
2019-02-12T07:38:39.410Z,61.10
2019-02-12T07:41:20.626Z,61.50
2019-02-12T07:44:07.364Z,62.00
2019-02-12T07:47:10.679Z,62.50
2019-02-12T07:50:00.352Z,62.00
2019-02-12T07:52:34.412Z,61.80
2019-02-12T07:55:28.669Z,61.00
2019-02-12T07:58:05.848Z,60.50
2019-02-12T08:00:53.921Z,60.00
2019-02-12T08:03:37.408Z,59.50
2019-02-12T08:06:20.223Z,60.30
2019-02-12T08:09:23.713Z,60.00
2019-02-12T08:11:57.910Z,60.20
2019-02-12T08:14:32.246Z,59.80
2019-02-12T08:17:15.578Z,60.30
2019-02-12T08:20:04.567Z,60.30
2019-02-12T08:22:55.643Z,58.80
2019-02-12T08:25:30.045Z,58.30
2019-02-12T08:28:20.911Z,58.00
2019-02-12T08:31:12.897Z,57.10
2019-02-12T08:33:47.226Z,55.60
2019-02-12T08:36:18.729Z,56.30
2019-02-12T08:39:08.274Z,55.60
2019-02-12T08:41:42.693Z,55.00
2019-02-12T08:44:23.214Z,54.60
2019-02-12T08:47:14.790Z,54.30
2019-02-12T08:49:48.783Z,53.80
2019-02-12T08:52:28.723Z,53.40
2019-02-12T08:55:15.013Z,54.30
2019-02-12T08:57:55.827Z,53.20
2019-02-12T09:00:32.853Z,53.30
2019-02-12T09:03:10.196Z,53.10
2019-02-12T09:05:47.261Z,51.20
2019-02-12T09:08:24.506Z,51.80
2019-02-12T09:11:24.079Z,50.60
2019-02-12T09:13:58.534Z,50.70
2019-02-12T09:16:49.549Z,50.60
2019-02-12T09:19:24.029Z,50.40
2019-02-12T09:22:24.399Z,50.00
2019-02-12T09:25:02.084Z,49.50
2019-02-12T09:27:51.805Z,49.20
2019-02-12T09:30:41.818Z,48.10
2019-02-12T09:33:16.299Z,49.30
2019-02-12T09:35:50.402Z,48.10
2019-02-12T09:38:38.270Z,48.20
2019-02-12T09:41:16.063Z,47.90
2019-02-12T09:43:47.546Z,47.50
2019-02-12T09:46:36.894Z,47.20
2019-02-12T09:49:39.066Z,46.50
2019-02-12T09:52:27.066Z,45.60
2019-02-12T09:55:08.970Z,44.70
2019-02-12T09:57:48.574Z,45.00
2019-02-12T10:00:29.080Z,45.50
2019-02-12T10:03:31.174Z,45.40
2019-02-12T10:06:08.888Z,45.30
2019-02-12T10:08:52.399Z,46.80
2019-02-12T10:11:32.651Z,47.40
2019-02-12T10:14:06.717Z,48.10
2019-02-12T10:16:55.894Z,48.90
2019-02-12T10:19:30.364Z,49.90
2019-02-12T10:22:04.613Z,51.00
2019-02-12T10:24:51.122Z,50.90
2019-02-12T10:27:43.458Z,51.20
2019-02-12T10:30:31.676Z,52.50
2019-02-12T10:33:00.106Z,52.40
2019-02-12T10:35:28.681Z,53.30
2019-02-12T10:37:57.143Z,52.50
2019-02-12T10:40:27.134Z,53.20
2019-02-12T10:42:55.849Z,52.60
2019-02-12T10:45:25.798Z,52.80
2019-02-12T10:47:54.387Z,52.20
2019-02-12T10:50:22.857Z,52.90
2019-02-12T10:52:51.326Z,51.90
2019-02-12T10:55:19.994Z,51.90
2019-02-12T10:57:48.417Z,52.30
2019-02-12T11:00:17.158Z,51.90
2019-02-12T11:02:45.565Z,53.40
2019-02-12T11:05:14.041Z,52.60
2019-02-12T11:07:42.444Z,52.00
2019-02-12T11:10:10.981Z,52.10
2019-02-12T11:12:39.385Z,52.50
2019-02-12T11:15:09.566Z,51.10
2019-02-12T11:17:38.021Z,50.70
2019-02-12T11:20:10.850Z,49.80
2019-02-12T11:22:39.380Z,47.90
2019-02-12T11:25:10.081Z,47.40
2019-02-12T11:27:38.509Z,46.40
2019-02-12T11:30:10.164Z,45.00
2019-02-12T11:32:38.581Z,46.20
2019-02-12T11:35:10.635Z,44.10
2019-02-12T11:37:39.113Z,44.70
2019-02-12T11:40:13.489Z,43.90
2019-02-12T11:42:42.078Z,43.10
2019-02-12T11:45:13.693Z,43.10
2019-02-12T11:47:42.077Z,42.40
2019-02-12T11:50:12.715Z,40.40
2019-02-12T11:52:41.118Z,39.30
2019-02-12T11:55:14.895Z,39.30
2019-02-12T11:57:43.689Z,36.80
2019-02-12T12:00:15.830Z,37.40
2019-02-12T12:02:44.300Z,36.40
2019-02-12T12:05:12.892Z,36.50
2019-02-12T12:07:41.351Z,36.80
2019-02-12T12:10:10.903Z,37.30
2019-02-12T12:12:39.297Z,34.80
2019-02-12T12:15:10.277Z,35.70
2019-02-12T12:17:38.937Z,34.10
2019-02-12T12:20:12.615Z,34.90
2019-02-12T12:22:41.076Z,34.40
2019-02-12T12:25:10.936Z,34.20
2019-02-12T12:27:39.529Z,33.60
2019-02-12T12:30:13.102Z,34.50
2019-02-12T12:32:41.605Z,34.20
2019-02-12T12:35:11.228Z,34.30
2019-02-12T12:37:39.677Z,34.50
2019-02-12T12:40:12.510Z,35.10
2019-02-12T12:42:41.357Z,34.60
2019-02-12T12:45:13.943Z,34.70
2019-02-12T12:47:42.350Z,35.80
2019-02-12T12:50:12.097Z,35.00
2019-02-12T12:52:40.510Z,35.40
2019-02-12T12:55:09.968Z,35.00
2019-02-12T12:57:41.853Z,35.30
2019-02-12T13:00:14.207Z,35.60
2019-02-12T13:02:42.617Z,35.80
2019-02-12T13:05:11.254Z,35.80
2019-02-12T13:07:39.937Z,35.90
2019-02-12T13:10:11.347Z,35.90
2019-02-12T13:12:39.815Z,36.30
2019-02-12T13:15:13.454Z,36.40
2019-02-12T13:17:41.862Z,36.00
2019-02-12T13:20:17.791Z,36.10
2019-02-12T13:22:46.197Z,35.90
2019-02-12T13:25:14.850Z,35.60
2019-02-12T13:27:43.277Z,36.00
2019-02-12T13:30:16.942Z,35.80
2019-02-12T13:32:45.348Z,36.20
2019-02-12T13:35:14.008Z,36.20
2019-02-12T13:37:42.465Z,37.00
2019-02-12T13:40:12.371Z,37.00
2019-02-12T13:42:40.885Z,36.80
2019-02-12T13:45:12.234Z,36.80
2019-02-12T13:47:40.637Z,36.40
2019-02-12T13:50:10.391Z,36.60
2019-02-12T13:52:38.785Z,37.50
2019-02-12T13:55:15.452Z,38.10
2019-02-12T13:57:38.957Z,38.70
2019-02-12T14:00:13.207Z,38.80
2019-02-12T14:02:41.622Z,39.30
2019-02-12T14:05:15.861Z,39.80
2019-02-12T14:07:44.325Z,40.30
2019-02-12T14:10:12.854Z,39.80
2019-02-12T14:12:41.258Z,40.30
2019-02-12T14:15:12.279Z,40.40
2019-02-12T14:17:41.037Z,39.90
2019-02-12T14:20:15.071Z,40.10
2019-02-12T14:22:43.511Z,39.60
2019-02-12T14:25:15.865Z,39.50
2019-02-12T14:27:44.345Z,39.20
2019-02-12T14:30:14.594Z,38.20
2019-02-12T14:32:43.857Z,38.10
2019-02-12T14:35:13.104Z,37.60
2019-02-12T14:37:41.606Z,38.00
2019-02-12T14:40:14.066Z,38.60
2019-02-12T14:42:42.477Z,38.40
2019-02-12T14:45:18.473Z,37.90
2019-02-12T14:47:46.891Z,38.30
2019-02-12T14:50:17.121Z,38.20
2019-02-12T14:52:45.601Z,38.40
2019-02-12T14:55:14.035Z,37.80
2019-02-12T14:57:42.465Z,37.20
2019-02-12T15:00:14.139Z,37.10
2019-02-12T15:02:42.678Z,37.10
2019-02-12T15:05:11.070Z,37.20
2019-02-12T15:07:39.507Z,36.80
2019-02-12T15:10:12.633Z,37.70
2019-02-12T15:12:41.353Z,37.50
2019-02-12T15:15:10.817Z,37.70
2019-02-12T15:17:39.294Z,37.20
2019-02-12T15:20:12.436Z,36.50
2019-02-12T15:22:40.844Z,36.80
2019-02-12T15:25:11.652Z,37.10
2019-02-12T15:27:40.133Z,37.00
2019-02-12T15:30:11.976Z,37.00
2019-02-12T15:32:40.457Z,37.70
2019-02-12T15:35:10.406Z,37.20
2019-02-12T15:37:39.089Z,37.30
2019-02-12T15:40:13.668Z,37.60
2019-02-12T15:42:42.085Z,37.80
2019-02-12T15:45:13.162Z,37.90
2019-02-12T15:47:41.693Z,38.10
2019-02-12T15:50:11.434Z,38.90
2019-02-12T15:52:39.904Z,39.00
2019-02-12T15:55:13.075Z,38.20
2019-02-12T15:57:43.685Z,38.70
2019-02-12T16:00:15.566Z,38.50
2019-02-12T16:02:44.218Z,38.90
2019-02-12T16:05:13.360Z,38.90
2019-02-12T16:07:42.620Z,39.40
2019-02-12T16:10:19.364Z,39.20
2019-02-12T16:12:48.928Z,39.20
2019-02-12T16:15:19.883Z,39.00
2019-02-12T16:17:49.089Z,39.50
2019-02-12T16:20:17.497Z,39.70
2019-02-12T16:22:45.896Z,39.80
2019-02-12T16:25:15.545Z,39.80
2019-02-12T16:27:44.284Z,40.40
2019-02-12T16:30:15.571Z,40.60
2019-02-12T16:32:43.975Z,40.80
2019-02-12T16:35:14.111Z,40.90
2019-02-12T16:37:42.551Z,40.90
2019-02-12T16:40:13.624Z,41.30
2019-02-12T16:42:42.039Z,41.20
2019-02-12T16:45:13.594Z,41.40
2019-02-12T16:47:42.358Z,41.50
2019-02-12T16:50:10.842Z,42.10
2019-02-12T16:52:39.281Z,42.10
2019-02-12T16:55:09.746Z,42.40
2019-02-12T16:57:38.155Z,42.60
2019-02-12T17:00:15.264Z,42.90
2019-02-12T17:02:43.741Z,42.80
2019-02-12T17:05:13.809Z,42.90
2019-02-12T17:07:43.885Z,43.20
2019-02-12T17:10:12.560Z,43.60
2019-02-12T17:12:40.973Z,43.70
2019-02-12T17:15:11.264Z,43.80
2019-02-12T17:17:39.993Z,44.20
2019-02-12T17:20:14.336Z,44.00
2019-02-12T17:22:42.746Z,44.20
2019-02-12T17:25:11.233Z,44.00
2019-02-12T17:27:39.644Z,43.60
2019-02-12T17:30:11.648Z,43.30
2019-02-12T17:32:40.092Z,43.60
2019-02-12T17:35:09.393Z,43.70
2019-02-12T17:37:37.934Z,44.30
2019-02-12T17:40:11.653Z,44.50
2019-02-12T17:42:40.097Z,43.80
2019-02-12T17:45:18.413Z,44.00
2019-02-12T17:47:46.853Z,44.40
2019-02-12T17:50:15.965Z,43.90
2019-02-12T17:52:44.414Z,43.70
2019-02-12T17:55:12.933Z,43.90
2019-02-12T17:57:41.472Z,43.80
2019-02-12T18:00:23.982Z,43.80
2019-02-12T18:02:52.406Z,44.10
2019-02-12T18:05:20.818Z,44.00
2019-02-12T18:07:49.392Z,44.40
2019-02-12T18:10:17.799Z,44.40
2019-02-12T18:12:46.237Z,44.40
2019-02-12T18:15:15.164Z,44.60
2019-02-12T18:17:43.561Z,45.00
2019-02-12T18:20:17.309Z,45.00
2019-02-12T18:22:45.720Z,44.90
2019-02-12T18:25:14.125Z,45.30
2019-02-12T18:27:42.605Z,44.60
2019-02-12T18:30:17.866Z,44.80
2019-02-12T18:32:46.317Z,44.90
2019-02-12T18:35:14.813Z,44.80
2019-02-12T18:37:43.308Z,44.60
2019-02-12T18:40:14.150Z,45.00
2019-02-12T18:42:42.568Z,45.10
2019-02-12T18:45:16.375Z,44.70
2019-02-12T18:47:44.801Z,44.70
2019-02-12T18:50:13.319Z,44.90
2019-02-12T18:52:41.863Z,44.70
2019-02-12T18:55:12.578Z,44.90
2019-02-12T18:57:41.092Z,44.70
2019-02-12T19:00:12.274Z,44.90
2019-02-12T19:02:40.686Z,44.90
2019-02-12T19:05:10.567Z,45.10
2019-02-12T19:07:39.055Z,45.10
2019-02-12T19:10:10.841Z,45.10
2019-02-12T19:12:39.364Z,45.00
2019-02-12T19:15:13.202Z,44.90
2019-02-12T19:17:42.845Z,45.10
2019-02-12T19:20:13.168Z,45.40
2019-02-12T19:22:41.629Z,45.10
2019-02-12T19:25:10.907Z,45.20
2019-02-12T19:27:39.393Z,45.20
2019-02-12T19:30:16.420Z,45.50
2019-02-12T19:32:45.170Z,45.50
2019-02-12T19:35:13.600Z,45.30
2019-02-12T19:37:42.732Z,45.10
2019-02-12T19:40:13.350Z,45.60
2019-02-12T19:42:41.817Z,45.70
2019-02-12T19:45:16.380Z,45.50
2019-02-12T19:47:45.174Z,45.70
2019-02-12T19:50:13.771Z,45.90
2019-02-12T19:52:42.629Z,46.20
2019-02-12T19:55:11.514Z,46.40
2019-02-12T19:57:40.002Z,46.40
2019-02-12T20:00:15.354Z,46.10
2019-02-12T20:02:43.822Z,46.70
2019-02-12T20:05:13.342Z,46.00
2019-02-12T20:07:42.006Z,46.10
2019-02-12T20:10:11.950Z,45.60
2019-02-12T20:12:40.631Z,45.10
2019-02-12T20:15:14.200Z,45.80
2019-02-12T20:17:42.756Z,45.90
2019-02-12T20:20:12.614Z,45.60
2019-02-12T20:22:41.050Z,45.60
2019-02-12T20:25:10.810Z,45.70
2019-02-12T20:27:39.298Z,46.10
2019-02-12T20:30:13.649Z,45.80
2019-02-12T20:32:42.689Z,46.00
2019-02-12T20:35:15.423Z,46.20
2019-02-12T20:37:43.929Z,46.30
2019-02-12T20:40:13.962Z,47.20
2019-02-12T20:42:42.446Z,47.60
2019-02-12T20:45:15.711Z,48.50
2019-02-12T20:47:44.539Z,48.80
2019-02-12T20:50:15.430Z,49.20
2019-02-12T20:52:43.884Z,49.50
2019-02-12T20:55:12.717Z,50.00
2019-02-12T20:57:41.294Z,50.50
2019-02-12T21:00:18.559Z,50.80
2019-02-12T21:02:48.049Z,50.90
2019-02-12T21:05:16.837Z,50.90
2019-02-12T21:07:45.280Z,51.00
2019-02-12T21:10:18.134Z,50.60
2019-02-12T21:12:46.550Z,50.50
2019-02-12T21:15:17.526Z,50.30
2019-02-12T21:17:45.938Z,50.70
2019-02-12T21:20:15.572Z,50.70
2019-02-12T21:22:45.209Z,50.70
2019-02-12T21:25:15.502Z,52.10
2019-02-12T21:27:44.385Z,53.20
2019-02-12T21:30:16.279Z,52.50
2019-02-12T21:32:44.799Z,52.50
2019-02-12T21:35:14.446Z,53.20
2019-02-12T21:37:43.174Z,53.40
2019-02-12T21:40:14.541Z,53.90
2019-02-12T21:42:42.962Z,54.70
2019-02-12T21:45:12.798Z,54.70
2019-02-12T21:47:41.705Z,54.70
2019-02-12T21:50:11.643Z,54.60
2019-02-12T21:52:42.999Z,54.10
2019-02-12T21:55:13.572Z,53.40
2019-02-12T21:57:42.098Z,53.40
2019-02-12T22:00:23.409Z,53.30
2019-02-12T22:02:52.339Z,53.20
2019-02-12T22:05:20.767Z,53.90
2019-02-12T22:07:49.362Z,53.70
2019-02-12T22:10:25.834Z,54.30
2019-02-12T22:12:54.327Z,54.40
2019-02-12T22:15:22.789Z,54.60
2019-02-12T22:17:51.337Z,54.90
2019-02-12T22:20:22.446Z,55.10
2019-02-12T22:22:50.896Z,55.30
2019-02-12T22:25:19.593Z,55.40
2019-02-12T22:27:48.138Z,55.80
2019-02-12T22:30:24.456Z,55.60
2019-02-12T22:32:52.885Z,55.40
2019-02-12T22:35:21.306Z,55.50
2019-02-12T22:37:49.937Z,54.80
2019-02-12T22:40:18.882Z,54.10
2019-02-12T22:42:47.363Z,54.20
2019-02-12T22:45:21.188Z,54.60
2019-02-12T22:47:52.855Z,55.20
2019-02-12T22:50:21.359Z,55.40
2019-02-12T22:52:50.119Z,56.00
2019-02-12T22:55:18.591Z,55.50
2019-02-12T22:57:49.576Z,55.50
2019-02-12T23:00:39.832Z,55.60
2019-02-12T23:03:08.986Z,55.70
2019-02-12T23:05:37.767Z,56.40
2019-02-12T23:08:06.232Z,56.30
2019-02-12T23:10:34.881Z,56.10
2019-02-12T23:13:03.603Z,56.20
2019-02-12T23:15:32.047Z,55.60
2019-02-12T23:18:00.445Z,54.60
2019-02-12T23:20:28.890Z,53.50
2019-02-12T23:22:57.292Z,52.90
2019-02-12T23:25:25.718Z,53.40
2019-02-12T23:27:57.524Z,53.80
2019-02-12T23:30:24.379Z,53.70
2019-02-12T23:32:53.339Z,54.20
2019-02-12T23:35:21.756Z,53.50
2019-02-12T23:37:50.199Z,53.60
2019-02-12T23:40:18.614Z,53.90
2019-02-12T23:42:47.017Z,54.80
2019-02-12T23:45:15.437Z,55.50
2019-02-12T23:47:43.918Z,55.90
2019-02-12T23:50:12.502Z,55.50
2019-02-12T23:52:40.937Z,56.20
2019-02-12T23:55:09.498Z,56.10
2019-02-12T23:57:37.914Z,55.90
